createdAt,value
2019-02-07T00:00:38.533Z,20.00
2019-02-07T00:03:10.374Z,19.73
2019-02-07T00:05:43.271Z,19.48
2019-02-07T00:08:15.095Z,18.55
2019-02-07T00:10:47.053Z,19.25
2019-02-07T00:13:18.975Z,19.77
2019-02-07T00:15:50.811Z,19.12
2019-02-07T00:18:22.616Z,17.57
2019-02-07T00:20:57.493Z,19.80
2019-02-07T00:23:29.350Z,20.97
2019-02-07T00:26:01.189Z,18.30
2019-02-07T00:28:34.311Z,17.50
2019-02-07T00:31:06.254Z,18.62
2019-02-07T00:33:38.524Z,17.57
2019-02-07T00:36:10.371Z,18.12
2019-02-07T00:38:42.200Z,18.90
2019-02-07T00:41:14.053Z,18.42
2019-02-07T00:43:45.947Z,18.12
2019-02-07T00:46:18.084Z,18.65
2019-02-07T00:48:49.931Z,19.48
2019-02-07T00:51:21.778Z,19.05
2019-02-07T00:53:54.887Z,18.75
2019-02-07T00:56:26.725Z,18.52
2019-02-07T00:58:58.540Z,19.73
2019-02-07T01:01:30.459Z,19.35
2019-02-07T01:04:02.287Z,18.23
2019-02-07T01:06:34.114Z,17.45
2019-02-07T01:09:08.707Z,19.10
2019-02-07T01:11:40.565Z,20.60
2019-02-07T01:14:12.405Z,19.57
2019-02-07T01:16:44.375Z,17.75
2019-02-07T01:19:16.197Z,19.10
2019-02-07T01:21:48.404Z,20.32
2019-02-07T01:24:20.228Z,18.48
2019-02-07T01:26:52.079Z,18.92
2019-02-07T01:29:23.917Z,19.00
2019-02-07T01:31:55.758Z,19.65
2019-02-07T01:34:27.868Z,19.37
2019-02-07T01:36:59.695Z,17.67
2019-02-07T01:39:31.548Z,18.75
2019-02-07T01:42:03.586Z,17.98
2019-02-07T01:44:35.432Z,18.87
2019-02-07T01:47:07.622Z,18.25
2019-02-07T01:49:39.453Z,17.82
2019-02-07T01:52:11.257Z,18.12
2019-02-07T01:54:43.105Z,18.98
2019-02-07T01:57:14.932Z,18.37
2019-02-07T01:59:50.295Z,18.20
2019-02-07T02:02:22.123Z,19.02
2019-02-07T02:04:53.991Z,20.05
2019-02-07T02:07:25.847Z,17.87
2019-02-07T02:09:57.681Z,18.40
2019-02-07T02:12:29.504Z,18.10
2019-02-07T02:15:01.392Z,17.82
2019-02-07T02:17:33.255Z,18.85
2019-02-07T02:20:06.692Z,18.57
2019-02-07T02:22:38.540Z,18.20
2019-02-07T02:25:11.292Z,18.40
2019-02-07T02:27:43.339Z,18.30
2019-02-07T02:30:30.479Z,18.73
2019-02-07T02:33:02.713Z,18.23
2019-02-07T02:35:34.530Z,18.70
2019-02-07T02:38:06.802Z,18.55
2019-02-07T02:40:38.758Z,18.07
2019-02-07T02:43:10.602Z,18.15
2019-02-07T02:45:42.808Z,18.15
2019-02-07T02:48:16.247Z,19.30
2019-02-07T02:50:48.084Z,17.90
2019-02-07T02:53:21.022Z,18.80
2019-02-07T02:55:58.473Z,18.82
2019-02-07T02:58:30.324Z,18.87
2019-02-07T03:01:20.982Z,18.95
2019-02-07T03:04:11.710Z,19.12
2019-02-07T03:07:05.561Z,16.80
2019-02-07T03:09:56.295Z,17.00
2019-02-07T03:13:05.517Z,16.73
2019-02-07T03:16:14.809Z,19.20
2019-02-07T03:19:12.101Z,18.42
2019-02-07T03:22:04.316Z,18.32
2019-02-07T03:25:04.312Z,18.45
2019-02-07T03:28:04.610Z,18.07
2019-02-07T03:31:10.769Z,20.17
2019-02-07T03:34:07.646Z,18.62
2019-02-07T03:36:55.426Z,18.27
2019-02-07T03:39:49.200Z,18.50
2019-02-07T03:42:39.931Z,18.73
2019-02-07T03:46:02.110Z,18.62
2019-02-07T03:48:33.453Z,18.57
2019-02-07T03:51:24.648Z,18.90
2019-02-07T03:54:07.463Z,18.62
2019-02-07T03:56:56.970Z,17.80
2019-02-07T03:59:59.645Z,18.82
2019-02-07T04:02:45.867Z,19.60
2019-02-07T04:05:35.334Z,18.15
2019-02-07T04:08:26.061Z,18.23
2019-02-07T04:11:19.198Z,17.65
2019-02-07T04:14:05.883Z,16.62
2019-02-07T04:16:56.581Z,17.20
2019-02-07T04:19:45.952Z,17.82
2019-02-07T04:22:45.768Z,18.15
2019-02-07T04:25:36.446Z,17.25
2019-02-07T04:28:29.921Z,17.45
2019-02-07T04:31:19.763Z,18.23
2019-02-07T04:34:19.778Z,18.45
2019-02-07T04:37:10.446Z,17.50
2019-02-07T04:40:01.149Z,17.57
2019-02-07T04:42:58.102Z,18.90
2019-02-07T04:45:51.605Z,20.12
2019-02-07T04:48:51.290Z,18.95
2019-02-07T04:51:31.574Z,19.45
2019-02-07T04:54:21.110Z,19.17
2019-02-07T04:57:17.251Z,19.52
2019-02-07T05:00:11.235Z,17.90
2019-02-07T05:03:01.922Z,18.50
2019-02-07T05:05:58.552Z,18.15
2019-02-07T05:08:44.305Z,19.07
2019-02-07T05:11:51.665Z,19.17
2019-02-07T05:14:38.903Z,19.15
2019-02-07T05:17:36.830Z,17.70
2019-02-07T05:20:34.471Z,19.20
2019-02-07T05:23:30.601Z,18.50
2019-02-07T05:26:15.060Z,17.90
2019-02-07T05:29:04.710Z,18.35
2019-02-07T05:31:55.414Z,18.02
2019-02-07T05:34:49.316Z,18.70
2019-02-07T05:37:40.021Z,18.67
2019-02-07T05:40:20.571Z,18.07
2019-02-07T05:43:20.667Z,17.55
2019-02-07T05:46:00.209Z,18.80
2019-02-07T05:49:06.075Z,19.05
2019-02-07T05:51:59.811Z,18.98
2019-02-07T05:54:53.538Z,19.10
2019-02-07T05:57:34.145Z,21.15
2019-02-07T06:00:27.760Z,22.75
2019-02-07T06:03:17.449Z,19.55
2019-02-07T06:06:17.495Z,19.17
2019-02-07T06:09:11.002Z,19.37
2019-02-07T06:12:00.424Z,18.75
2019-02-07T06:14:52.700Z,19.80
2019-02-07T06:17:42.423Z,18.70
2019-02-07T06:20:31.148Z,18.07
2019-02-07T06:23:20.575Z,18.75
2019-02-07T06:26:20.705Z,18.27
2019-02-07T06:29:07.887Z,22.10
2019-02-07T06:32:07.690Z,27.07
2019-02-07T06:34:57.301Z,24.70
2019-02-07T06:37:49.025Z,24.72
2019-02-07T06:40:47.441Z,26.45
2019-02-07T06:43:29.777Z,21.80
2019-02-07T06:46:20.472Z,22.50
2019-02-07T06:49:18.288Z,21.07
2019-02-07T06:52:07.910Z,21.62
2019-02-07T06:54:57.507Z,20.50
2019-02-07T06:57:56.588Z,22.25
2019-02-07T07:00:54.936Z,20.82
2019-02-07T07:03:44.298Z,18.20
2019-02-07T07:06:34.989Z,15.75
2019-02-07T07:09:32.240Z,16.50
2019-02-07T07:12:15.994Z,23.15
2019-02-07T07:15:03.751Z,26.33
2019-02-07T07:17:46.560Z,20.48
2019-02-07T07:20:41.261Z,20.37
2019-02-07T07:23:31.976Z,22.40
2019-02-07T07:26:21.673Z,33.58
2019-02-07T07:29:14.376Z,27.93
2019-02-07T07:32:07.396Z,20.08
2019-02-07T07:34:58.295Z,22.62
2019-02-07T07:37:46.108Z,19.85
2019-02-07T07:40:46.191Z,19.40
2019-02-07T07:43:42.759Z,21.05
2019-02-07T07:46:44.083Z,22.35
2019-02-07T07:49:29.452Z,21.37
2019-02-07T07:52:22.925Z,35.30
2019-02-07T07:55:09.207Z,33.55
2019-02-07T07:57:59.917Z,25.68
2019-02-07T08:00:59.747Z,34.33
2019-02-07T08:03:42.581Z,33.28
2019-02-07T08:06:51.843Z,28.85
2019-02-07T08:09:39.312Z,25.00
2019-02-07T08:12:29.235Z,22.65
2019-02-07T08:15:19.022Z,22.17
2019-02-07T08:18:12.662Z,22.60
2019-02-07T08:21:03.303Z,31.75
2019-02-07T08:23:53.280Z,30.55
2019-02-07T08:26:44.898Z,29.60
2019-02-07T08:29:47.737Z,32.00
2019-02-07T08:32:38.959Z,20.37
2019-02-07T08:35:30.944Z,65.22
2019-02-07T08:38:40.073Z,44.75
2019-02-07T08:41:30.797Z,36.60
2019-02-07T08:44:20.019Z,27.27
2019-02-07T08:47:21.641Z,25.20
2019-02-07T08:50:11.525Z,23.30
2019-02-07T08:53:14.315Z,23.95
2019-02-07T08:56:05.035Z,22.00
2019-02-07T08:58:56.011Z,22.13
2019-02-07T09:01:46.711Z,22.50
2019-02-07T09:04:38.152Z,23.20
2019-02-07T09:07:26.889Z,28.40
2019-02-07T09:10:15.253Z,27.75
2019-02-07T09:13:04.975Z,34.00
2019-02-07T09:16:14.863Z,25.35
2019-02-07T09:18:58.574Z,29.98
2019-02-07T09:21:47.218Z,32.08
2019-02-07T09:24:31.963Z,30.20
2019-02-07T09:27:21.493Z,43.15
2019-02-07T09:30:27.469Z,26.68
2019-02-07T09:33:27.099Z,25.43
2019-02-07T09:36:16.716Z,26.10
2019-02-07T09:39:15.357Z,25.20
2019-02-07T09:42:06.220Z,24.35
2019-02-07T09:45:06.272Z,26.50
2019-02-07T09:47:51.498Z,32.67
2019-02-07T09:50:42.270Z,40.88
2019-02-07T09:53:30.445Z,36.38
2019-02-07T09:56:28.701Z,40.78
2019-02-07T09:59:14.314Z,36.90
2019-02-07T10:01:52.971Z,27.85
2019-02-07T10:04:43.712Z,25.30
2019-02-07T10:07:23.077Z,25.12
2019-02-07T10:10:16.856Z,24.82
2019-02-07T10:13:14.732Z,26.02
2019-02-07T10:16:03.483Z,22.15
2019-02-07T10:19:10.572Z,22.42
2019-02-07T10:22:07.504Z,23.60
2019-02-07T10:24:57.063Z,23.00
2019-02-07T10:27:49.545Z,22.75
2019-02-07T10:30:44.223Z,40.83
2019-02-07T10:33:35.039Z,25.10
2019-02-07T10:36:31.680Z,25.82
2019-02-07T10:39:40.630Z,24.33
2019-02-07T10:42:37.784Z,25.62
2019-02-07T10:45:43.511Z,26.80
2019-02-07T10:48:43.976Z,27.20
2019-02-07T10:51:25.788Z,27.70
2019-02-07T10:54:15.440Z,26.95
2019-02-07T10:57:23.881Z,22.60
2019-02-07T11:00:18.097Z,16.75
2019-02-07T11:03:04.593Z,17.15
2019-02-07T11:06:03.653Z,15.18
2019-02-07T11:09:03.292Z,23.07
2019-02-07T11:11:48.144Z,20.50
2019-02-07T11:14:39.167Z,16.57
2019-02-07T11:17:24.788Z,15.00
2019-02-07T11:20:15.233Z,12.20
2019-02-07T11:23:13.648Z,12.23
2019-02-07T11:26:15.036Z,21.48
2019-02-07T11:29:14.862Z,25.60
2019-02-07T11:32:17.627Z,24.80
2019-02-07T11:34:59.243Z,21.50
2019-02-07T11:37:48.558Z,22.13
2019-02-07T11:40:58.970Z,24.23
2019-02-07T11:43:42.373Z,24.40
2019-02-07T11:46:49.104Z,27.42
2019-02-07T11:49:34.613Z,26.80
2019-02-07T11:52:22.755Z,24.73
2019-02-07T11:55:15.133Z,24.40
2019-02-07T11:58:15.611Z,23.70
2019-02-07T12:01:18.166Z,24.00
2019-02-07T12:04:11.363Z,22.77
2019-02-07T12:07:02.094Z,23.77
2019-02-07T12:09:56.817Z,26.00
2019-02-07T12:12:52.592Z,22.40
2019-02-07T12:15:44.824Z,24.30
2019-02-07T12:18:42.009Z,22.37
2019-02-07T12:21:32.765Z,20.32
2019-02-07T12:24:26.911Z,21.62
2019-02-07T12:27:20.148Z,20.60
2019-02-07T12:30:17.441Z,20.17
2019-02-07T12:33:13.846Z,20.27
2019-02-07T12:35:59.932Z,18.50
2019-02-07T12:38:57.023Z,20.37
2019-02-07T12:41:45.951Z,22.67
2019-02-07T12:44:32.175Z,20.13
2019-02-07T12:47:18.318Z,17.40
2019-02-07T12:50:14.229Z,18.32
2019-02-07T12:52:56.075Z,19.50
2019-02-07T12:55:52.298Z,14.93
2019-02-07T12:58:47.802Z,13.93
2019-02-07T13:01:44.717Z,11.85
2019-02-07T13:04:32.136Z,11.20
2019-02-07T13:07:37.774Z,11.57
2019-02-07T13:10:49.979Z,10.10
2019-02-07T13:13:35.663Z,11.70
2019-02-07T13:16:24.578Z,11.53
2019-02-07T13:19:14.011Z,10.10
2019-02-07T13:22:04.236Z,10.07
2019-02-07T13:24:55.769Z,9.67
2019-02-07T13:27:42.292Z,10.67
2019-02-07T13:30:36.135Z,10.00
2019-02-07T13:33:41.676Z,19.97
2019-02-07T13:36:37.862Z,20.23
2019-02-07T13:39:25.953Z,18.43
2019-02-07T13:42:15.482Z,15.80
2019-02-07T13:45:07.021Z,19.90
2019-02-07T13:48:06.315Z,19.60
2019-02-07T13:50:51.558Z,23.23
2019-02-07T13:53:51.100Z,14.17
2019-02-07T13:56:44.331Z,11.87
2019-02-07T13:59:33.795Z,11.30
2019-02-07T14:02:20.082Z,10.40
2019-02-07T14:05:10.507Z,11.30
2019-02-07T14:08:04.801Z,10.77
2019-02-07T14:10:58.244Z,14.83
2019-02-07T14:13:50.711Z,17.70
2019-02-07T14:16:40.415Z,21.90
2019-02-07T14:19:31.490Z,24.73
2019-02-07T14:22:17.842Z,24.07
2019-02-07T14:25:17.135Z,23.93
2019-02-07T14:28:06.023Z,18.90
2019-02-07T14:30:49.502Z,15.17
2019-02-07T14:33:47.015Z,13.80
2019-02-07T14:36:37.171Z,13.77
2019-02-07T14:39:29.716Z,12.87
2019-02-07T14:42:14.613Z,12.23
2019-02-07T14:45:03.683Z,23.30
2019-02-07T14:47:35.329Z,21.10
2019-02-07T14:50:14.937Z,20.93
2019-02-07T14:52:41.675Z,21.50
2019-02-07T14:55:15.199Z,21.80
2019-02-07T14:57:46.671Z,17.80
2019-02-07T15:00:22.508Z,15.80
2019-02-07T15:02:59.511Z,13.10
2019-02-07T15:05:34.362Z,14.83
2019-02-07T15:08:06.491Z,29.80
2019-02-07T15:10:38.129Z,36.27
2019-02-07T15:13:09.727Z,30.20
2019-02-07T15:15:44.007Z,27.60
2019-02-07T15:18:15.590Z,31.93
2019-02-07T15:20:47.466Z,28.53
2019-02-07T15:23:23.935Z,24.77
2019-02-07T15:25:55.479Z,27.33
2019-02-07T15:28:28.152Z,25.40
2019-02-07T15:31:01.328Z,24.50
2019-02-07T15:33:32.996Z,23.30
2019-02-07T15:36:06.287Z,31.93
2019-02-07T15:38:39.609Z,28.27
2019-02-07T15:41:18.861Z,33.50
2019-02-07T15:43:57.911Z,24.40
2019-02-07T15:46:36.537Z,23.20
2019-02-07T15:49:07.741Z,22.20
2019-02-07T15:51:40.045Z,23.50
2019-02-07T15:54:13.218Z,22.70
2019-02-07T15:56:46.455Z,21.80
2019-02-07T15:59:33.983Z,24.50
2019-02-07T16:02:18.176Z,24.90
2019-02-07T16:04:51.311Z,22.63
2019-02-07T16:07:22.927Z,25.57
2019-02-07T16:09:54.915Z,53.63
2019-02-07T16:12:29.481Z,82.73
2019-02-07T16:15:06.968Z,56.20
2019-02-07T16:17:38.743Z,67.27
2019-02-07T16:20:15.431Z,36.50
2019-02-07T16:22:50.176Z,29.80
2019-02-07T16:25:24.053Z,23.70
2019-02-07T16:27:57.513Z,25.60
2019-02-07T16:30:30.614Z,25.87
2019-02-07T16:33:05.240Z,27.10
2019-02-07T16:35:40.071Z,28.33
2019-02-07T16:38:15.580Z,25.57
2019-02-07T16:40:51.566Z,24.70
2019-02-07T16:43:21.981Z,25.87
2019-02-07T16:45:56.389Z,24.43
2019-02-07T16:48:27.974Z,26.60
2019-02-07T16:51:05.864Z,23.60
2019-02-07T16:53:46.151Z,27.57
2019-02-07T16:56:20.761Z,29.67
2019-02-07T16:58:52.397Z,26.93
2019-02-07T17:01:25.526Z,32.30
2019-02-07T17:03:58.026Z,28.07
2019-02-07T17:06:31.950Z,24.80
2019-02-07T17:09:09.138Z,26.67
2019-02-07T17:11:40.689Z,23.77
2019-02-07T17:14:14.013Z,29.90
2019-02-07T17:16:47.174Z,40.23
2019-02-07T17:19:19.847Z,42.53
2019-02-07T17:21:57.988Z,44.53
2019-02-07T17:24:34.915Z,46.30
2019-02-07T17:27:07.954Z,35.43
2019-02-07T17:29:39.591Z,30.53
2019-02-07T17:32:12.290Z,29.33
2019-02-07T17:34:43.862Z,26.20
2019-02-07T17:37:15.482Z,25.70
2019-02-07T17:39:51.039Z,26.60
2019-02-07T17:42:22.626Z,27.53
2019-02-07T17:44:55.487Z,26.97
2019-02-07T17:47:29.517Z,31.33
2019-02-07T17:50:03.937Z,35.77
2019-02-07T17:52:39.200Z,55.37
2019-02-07T17:55:15.023Z,52.00
2019-02-07T17:57:49.502Z,41.33
2019-02-07T18:00:44.187Z,36.60
2019-02-07T18:03:17.236Z,27.90
2019-02-07T18:05:51.398Z,31.40
2019-02-07T18:08:24.842Z,32.67
2019-02-07T18:11:07.393Z,48.50
2019-02-07T18:13:40.427Z,44.83
2019-02-07T18:16:15.279Z,29.00
2019-02-07T18:18:47.447Z,32.10
2019-02-07T18:21:19.009Z,31.33
2019-02-07T18:23:53.395Z,31.50
2019-02-07T18:26:24.964Z,32.40
2019-02-07T18:28:58.169Z,31.47
2019-02-07T18:31:29.737Z,32.73
2019-02-07T18:34:01.620Z,35.23
2019-02-07T18:36:35.912Z,31.73
2019-02-07T18:39:10.703Z,31.07
2019-02-07T18:41:42.381Z,37.23
2019-02-07T18:44:14.559Z,45.40
2019-02-07T18:46:50.468Z,35.73
2019-02-07T18:49:23.569Z,30.60
2019-02-07T18:51:55.215Z,32.80
2019-02-07T18:54:28.085Z,30.77
2019-02-07T18:57:05.729Z,29.40
2019-02-07T18:59:40.277Z,27.60
2019-02-07T19:02:14.807Z,30.10
2019-02-07T19:04:46.700Z,25.30
2019-02-07T19:07:18.850Z,25.87
2019-02-07T19:09:53.438Z,27.67
2019-02-07T19:12:25.292Z,28.27
2019-02-07T19:15:07.612Z,26.47
2019-02-07T19:17:39.243Z,27.30
2019-02-07T19:20:19.889Z,27.70
2019-02-07T19:22:52.873Z,26.97
2019-02-07T19:25:24.440Z,27.30
2019-02-07T19:28:05.299Z,29.03
2019-02-07T19:30:38.365Z,29.83
2019-02-07T19:33:09.967Z,32.70
2019-02-07T19:35:43.907Z,22.45
2019-02-07T19:38:17.030Z,26.00
2019-02-07T19:40:48.776Z,27.30
2019-02-07T19:43:20.775Z,23.55
2019-02-07T19:45:59.954Z,24.50
2019-02-07T19:48:33.559Z,27.53
2019-02-07T19:51:08.391Z,28.40
2019-02-07T19:53:40.025Z,25.13
2019-02-07T19:56:14.651Z,24.20
2019-02-07T19:58:49.009Z,24.70
2019-02-07T20:01:22.982Z,28.62
2019-02-07T20:03:54.948Z,29.92
2019-02-07T20:06:29.810Z,32.95
2019-02-07T20:09:06.096Z,33.30
2019-02-07T20:11:41.062Z,33.80
2019-02-07T20:14:14.876Z,29.50
2019-02-07T20:16:51.511Z,28.25
2019-02-07T20:19:23.119Z,34.47
2019-02-07T20:21:58.706Z,39.70
2019-02-07T20:24:30.821Z,35.45
2019-02-07T20:27:06.047Z,32.63
2019-02-07T20:29:40.092Z,34.13
2019-02-07T20:32:17.442Z,29.80
2019-02-07T20:34:52.547Z,31.60
2019-02-07T20:37:26.326Z,28.30
2019-02-07T20:39:58.192Z,26.12
2019-02-07T20:42:36.151Z,26.52
2019-02-07T20:45:11.049Z,28.05
2019-02-07T20:47:46.224Z,25.43
2019-02-07T20:50:22.040Z,27.07
2019-02-07T20:52:55.650Z,26.35
2019-02-07T20:55:28.243Z,25.37
2019-02-07T20:58:03.446Z,24.57
2019-02-07T21:00:37.127Z,23.55
2019-02-07T21:03:12.107Z,23.70
2019-02-07T21:05:51.968Z,24.75
2019-02-07T21:08:25.557Z,22.80
2019-02-07T21:10:57.517Z,22.35
2019-02-07T21:13:31.148Z,25.92
2019-02-07T21:16:04.147Z,26.10
2019-02-07T21:18:37.470Z,25.88
2019-02-07T21:21:11.152Z,26.35
2019-02-07T21:23:44.839Z,28.10
2019-02-07T21:26:21.503Z,28.62
2019-02-07T21:28:54.362Z,30.60
2019-02-07T21:31:28.013Z,23.55
2019-02-07T21:34:02.925Z,23.73
2019-02-07T21:36:35.968Z,23.30
2019-02-07T21:39:14.933Z,27.05
2019-02-07T21:41:48.635Z,30.00
2019-02-07T21:44:22.542Z,26.20
2019-02-07T21:47:00.121Z,24.55
2019-02-07T21:49:31.993Z,25.92
2019-02-07T21:52:03.888Z,24.37
2019-02-07T21:54:39.209Z,24.12
2019-02-07T21:57:13.772Z,22.95
2019-02-07T21:59:49.760Z,24.32
2019-02-07T22:02:23.853Z,22.77
2019-02-07T22:04:58.366Z,27.90
2019-02-07T22:07:37.197Z,25.55
2019-02-07T22:10:10.331Z,25.25
2019-02-07T22:12:44.616Z,23.40
2019-02-07T22:15:20.484Z,20.90
2019-02-07T22:17:54.913Z,20.90
2019-02-07T22:20:29.331Z,21.15
2019-02-07T22:23:03.544Z,23.10
2019-02-07T22:25:39.956Z,24.63
2019-02-07T22:28:14.082Z,31.00
2019-02-07T22:30:45.949Z,31.87
2019-02-07T22:33:21.044Z,23.40
2019-02-07T22:35:55.736Z,32.13
2019-02-07T22:38:27.708Z,29.32
2019-02-07T22:41:00.924Z,23.47
2019-02-07T22:43:32.773Z,27.00
2019-02-07T22:46:04.731Z,25.27
2019-02-07T22:48:39.428Z,30.32
2019-02-07T22:51:11.319Z,27.65
2019-02-07T22:53:46.193Z,29.50
2019-02-07T22:56:20.774Z,28.30
2019-02-07T22:58:53.799Z,26.42
2019-02-07T23:01:52.573Z,25.92
2019-02-07T23:04:27.880Z,26.50
2019-02-07T23:07:02.698Z,27.37
2019-02-07T23:09:34.534Z,23.70
2019-02-07T23:12:06.978Z,23.20
2019-02-07T23:14:38.867Z,22.90
2019-02-07T23:17:10.727Z,20.90
2019-02-07T23:19:42.551Z,21.27
2019-02-07T23:22:15.727Z,23.42
2019-02-07T23:24:47.587Z,22.10
2019-02-07T23:27:21.757Z,21.95
2019-02-07T23:29:56.536Z,20.32
2019-02-07T23:32:30.871Z,20.50
2019-02-07T23:35:02.898Z,21.15
2019-02-07T23:37:37.063Z,22.50
2019-02-07T23:40:14.969Z,21.33
2019-02-07T23:42:46.934Z,19.85
2019-02-07T23:45:22.598Z,22.37
2019-02-07T23:47:57.081Z,22.52
2019-02-07T23:50:32.014Z,20.10
2019-02-07T23:53:14.224Z,20.88
2019-02-07T23:55:42.007Z,19.65
2019-02-07T23:58:16.125Z,20.65
